Abakan, Russia
Current Conditions -  °F | °C
As of 5:00 PM on Tuesday 27 Jan 2015 (Local Time) from UNAA Reporting Station
Broken Clouds Broken Clouds  
Wind Chill: -12°   Ceiling: 14000
Heat Index: -2°   Visibility: 4mi
Dew Point: -9°   Wind: 4mph
Humidity: 71%   Direction: NA
Pressure: 30.5"   Gusts: NA
Location:  53.72°N, 91.43°E
Report Text: UNAA 271000Z VRB02MPS 6000 BKN140 BKN200 M19/M23 Q1033 NOSIGRMK QFE752 52190055
Loading
Personal Weather Stations






























Interactive Weather Map New forecast layout! Learn more

10-Day Weather Forecast

Advertisements
Track Severe Weather on mobile